sensor_id;sensor_type;location;lat;lon;timestamp;pressure;altitude;pressure_sealevel;temperature
62932;BMP280;49037;41.898;25.004;2022-12-18T02:29:41;96957.53;;;9.47
62932;BMP280;49037;41.898;25.004;2022-12-18T02:33:18;96954.09;;;9.52
62932;BMP280;49037;41.898;25.004;2022-12-18T02:42:49;96966.59;;;9.75
62932;BMP280;49037;41.898;25.004;2022-12-18T02:45:34;96955.81;;;9.68
62932;BMP280;49037;41.898;25.004;2022-12-18T02:55:28;96987.34;;;9.82
62932;BMP280;49037;41.898;25.004;2022-12-18T03:11:19;96966.38;;;9.73
62932;BMP280;49037;41.898;25.004;2022-12-18T03:14:08;96972.41;;;9.74
62932;BMP280;49037;41.898;25.004;2022-12-18T03:16:54;96981.72;;;9.86
62932;BMP280;49037;41.898;25.004;2022-12-18T03:33:02;96984.16;;;9.84
62932;BMP280;49037;41.898;25.004;2022-12-18T03:35:55;96984.66;;;9.82
62932;BMP280;49037;41.898;25.004;2022-12-18T03:45:34;97003.97;;;9.88
62932;BMP280;49037;41.898;25.004;2022-12-18T03:48:27;97008.38;;;9.86
62932;BMP280;49037;41.898;25.004;2022-12-18T03:50:57;97034.38;;;9.98
62932;BMP280;49037;41.898;25.004;2022-12-18T03:53:47;97024.91;;;9.84
62932;BMP280;49037;41.898;25.004;2022-12-18T04:03:16;97030.56;;;9.94
62932;BMP280;49037;41.898;25.004;2022-12-18T04:10:28;97035.19;;;9.93
62932;BMP280;49037;41.898;25.004;2022-12-18T04:31:24;97035.69;;;9.92
62932;BMP280;49037;41.898;25.004;2022-12-18T04:34:52;97042.25;;;9.91
62932;BMP280;49037;41.898;25.004;2022-12-18T04:38:03;97057.78;;;10.05
62932;BMP280;49037;41.898;25.004;2022-12-18T04:40:46;97044.81;;;9.96
62932;BMP280;49037;41.898;25.004;2022-12-18T04:43:15;97057.66;;;9.98
62932;BMP280;49037;41.898;25.004;2022-12-18T05:11:44;97085.22;;;9.87
62932;BMP280;49037;41.898;25.004;2022-12-18T05:14:31;97093.53;;;10.02
62932;BMP280;49037;41.898;25.004;2022-12-18T05:17:52;97102.44;;;10.05
62932;BMP280;49037;41.898;25.004;2022-12-18T05:21:01;97109.44;;;10.07
62932;BMP280;49037;41.898;25.004;2022-12-18T05:23:46;97107.78;;;10.05
62932;BMP280;49037;41.898;25.004;2022-12-18T05:26:17;97098.53;;;10.06
62932;BMP280;49037;41.898;25.004;2022-12-18T05:32:23;97117.09;;;9.98
62932;BMP280;49037;41.898;25.004;2022-12-18T05:35:23;97143.09;;;10.10
62932;BMP280;49037;41.898;25.004;2022-12-18T05:38:13;97127.97;;;10.00
62932;BMP280;49037;41.898;25.004;2022-12-18T05:41:03;97138.34;;;10.04
62932;BMP280;49037;41.898;25.004;2022-12-18T05:43:56;97145.44;;;10.01
62932;BMP280;49037;41.898;25.004;2022-12-18T05:50:12;97156.53;;;10.05
62932;BMP280;49037;41.898;25.004;2022-12-18T05:53:22;97164.03;;;10.07
62932;BMP280;49037;41.898;25.004;2022-12-18T05:56:20;97161.34;;;10.07
62932;BMP280;49037;41.898;25.004;2022-12-18T06:03:02;97170.44;;;10.16
62932;BMP280;49037;41.898;25.004;2022-12-18T06:11:28;97170.72;;;10.13
62932;BMP280;49037;41.898;25.004;2022-12-18T06:14:15;97179.97;;;10.12
62932;BMP280;49037;41.898;25.004;2022-12-18T06:20:40;97189.13;;;10.16
62932;BMP280;49037;41.898;25.004;2022-12-18T06:23:31;97186.72;;;10.13
62932;BMP280;49037;41.898;25.004;2022-12-18T06:26:15;97204.34;;;10.21
62932;BMP280;49037;41.898;25.004;2022-12-18T06:35:44;97214.59;;;10.17
62932;BMP280;49037;41.898;25.004;2022-12-18T06:38:29;97227.75;;;10.34
62932;BMP280;49037;41.898;25.004;2022-12-18T12:39:00;97487.34;;;9.01
62932;BMP280;49037;41.898;25.004;2022-12-18T12:41:30;97496.34;;;8.93
62932;BMP280;49037;41.898;25.004;2022-12-18T12:44:32;97495.84;;;8.94
62932;BMP280;49037;41.898;25.004;2022-12-18T12:47:03;97501.72;;;8.71
62932;BMP280;49037;41.898;25.004;2022-12-18T12:49:31;97513.13;;;8.77
62932;BMP280;49037;41.898;25.004;2022-12-18T13:14:52;97543.13;;;8.77
62932;BMP280;49037;41.898;25.004;2022-12-18T14:34:46;97613.28;;;8.14
62932;BMP280;49037;41.898;25.004;2022-12-18T14:38:15;97625.66;;;8.17
62932;BMP280;49037;41.898;25.004;2022-12-18T14:41:18;97639.91;;;8.14
62932;BMP280;49037;41.898;25.004;2022-12-18T14:44:47;97657.09;;;8.24
62932;BMP280;49037;41.898;25.004;2022-12-18T14:47:52;97641.84;;;8.14
62932;BMP280;49037;41.898;25.004;2022-12-18T14:50:31;97641.63;;;8.28
62932;BMP280;49037;41.898;25.004;2022-12-18T14:54:19;97648.63;;;8.26
62932;BMP280;49037;41.898;25.004;2022-12-18T14:57:49;97668.94;;;8.23
62932;BMP280;49037;41.898;25.004;2022-12-18T15:00:30;97646.44;;;8.14
62932;BMP280;49037;41.898;25.004;2022-12-18T15:03:21;97644.97;;;8.13
62932;BMP280;49037;41.898;25.004;2022-12-18T15:06:36;97667.50;;;8.22
62932;BMP280;49037;41.898;25.004;2022-12-18T15:09:28;97653.47;;;8.11
62932;BMP280;49037;41.898;25.004;2022-12-18T15:12:46;97650.75;;;8.06
62932;BMP280;49037;41.898;25.004;2022-12-18T15:16:15;97656.34;;;8.08
62932;BMP280;49037;41.898;25.004;2022-12-18T15:19:43;97669.44;;;8.16
62932;BMP280;49037;41.898;25.004;2022-12-18T15:23:11;97657.81;;;8.09
62932;BMP280;49037;41.898;25.004;2022-12-18T15:26:30;97671.13;;;8.19
62932;BMP280;49037;41.898;25.004;2022-12-18T15:33:29;97662.91;;;8.28
62932;BMP280;49037;41.898;25.004;2022-12-18T16:00:24;97658.09;;;7.64
62932;BMP280;49037;41.898;25.004;2022-12-18T16:03:31;97667.00;;;7.55
62932;BMP280;49037;41.898;25.004;2022-12-18T16:07:29;97665.75;;;7.51
62932;BMP280;49037;41.898;25.004;2022-12-18T16:17:58;97684.41;;;7.62
62932;BMP280;49037;41.898;25.004;2022-12-18T16:21:14;97663.53;;;7.44
62932;BMP280;49037;41.898;25.004;2022-12-18T16:27:10;97683.50;;;7.65
62932;BMP280;49037;41.898;25.004;2022-12-18T16:30:19;97704.78;;;7.75
62932;BMP280;49037;41.898;25.004;2022-12-18T16:33:36;97687.13;;;7.72
62932;BMP280;49037;41.898;25.004;2022-12-18T16:36:26;97697.25;;;7.63
62932;BMP280;49037;41.898;25.004;2022-12-18T16:39:11;97703.50;;;7.60
62932;BMP280;49037;41.898;25.004;2022-12-18T16:41:37;97708.59;;;7.58
62932;BMP280;49037;41.898;25.004;2022-12-18T16:44:03;97698.84;;;7.50
62932;BMP280;49037;41.898;25.004;2022-12-18T16:46:29;97714.63;;;7.59
62932;BMP280;49037;41.898;25.004;2022-12-18T16:48:56;97728.41;;;7.57
62932;BMP280;49037;41.898;25.004;2022-12-18T16:51:22;97713.31;;;7.43
62932;BMP280;49037;41.898;25.004;2022-12-18T16:53:47;97730.31;;;7.57
62932;BMP280;49037;41.898;25.004;2022-12-18T16:56:13;97731.75;;;7.52
62932;BMP280;49037;41.898;25.004;2022-12-18T16:58:39;97731.16;;;7.37
62932;BMP280;49037;41.898;25.004;2022-12-18T17:01:09;97720.97;;;7.30
62932;BMP280;49037;41.898;25.004;2022-12-18T17:03:34;97728.66;;;7.28
62932;BMP280;49037;41.898;25.004;2022-12-18T17:06:04;97735.06;;;7.11
62932;BMP280;49037;41.898;25.004;2022-12-18T17:08:29;97736.09;;;7.19
62932;BMP280;49037;41.898;25.004;2022-12-18T17:10:55;97733.41;;;7.14
62932;BMP280;49037;41.898;25.004;2022-12-18T17:13:20;97742.91;;;7.25
62932;BMP280;49037;41.898;25.004;2022-12-18T17:15:46;97744.13;;;7.24
62932;BMP280;49037;41.898;25.004;2022-12-18T17:18:11;97733.91;;;7.17
62932;BMP280;49037;41.898;25.004;2022-12-18T17:20:36;97752.13;;;7.05
62932;BMP280;49037;41.898;25.004;2022-12-18T17:23:02;97738.94;;;6.85
62932;BMP280;49037;41.898;25.004;2022-12-18T17:25:27;97741.44;;;6.94
62932;BMP280;49037;41.898;25.004;2022-12-18T17:27:53;97749.91;;;6.98
62932;BMP280;49037;41.898;25.004;2022-12-18T17:30:18;97731.28;;;6.92
62932;BMP280;49037;41.898;25.004;2022-12-18T17:32:44;97736.13;;;6.94
62932;BMP280;49037;41.898;25.004;2022-12-18T17:35:09;97715.97;;;6.82
62932;BMP280;49037;41.898;25.004;2022-12-18T17:37:34;97724.16;;;6.78
62932;BMP280;49037;41.898;25.004;2022-12-18T17:40:00;97736.63;;;6.72
62932;BMP280;49037;41.898;25.004;2022-12-18T17:42:25;97735.81;;;6.61
62932;BMP280;49037;41.898;25.004;2022-12-18T17:44:51;97749.53;;;6.60
62932;BMP280;49037;41.898;25.004;2022-12-18T17:47:16;97735.50;;;6.54
62932;BMP280;49037;41.898;25.004;2022-12-18T17:49:42;97736.69;;;6.53
62932;BMP280;49037;41.898;25.004;2022-12-18T17:52:08;97730.41;;;6.30
62932;BMP280;49037;41.898;25.004;2022-12-18T17:54:33;97741.31;;;6.38
62932;BMP280;49037;41.898;25.004;2022-12-18T17:57:01;97747.91;;;6.22
62932;BMP280;49037;41.898;25.004;2022-12-18T17:59:27;97747.25;;;6.27
62932;BMP280;49037;41.898;25.004;2022-12-18T18:01:53;97739.69;;;6.20
62932;BMP280;49037;41.898;25.004;2022-12-18T18:04:18;97752.66;;;6.18
62932;BMP280;49037;41.898;25.004;2022-12-18T18:06:44;97749.53;;;6.20
62932;BMP280;49037;41.898;25.004;2022-12-18T18:09:09;97754.97;;;6.11
62932;BMP280;49037;41.898;25.004;2022-12-18T18:11:35;97752.53;;;6.08
62932;BMP280;49037;41.898;25.004;2022-12-18T18:14:19;97760.22;;;6.06
62932;BMP280;49037;41.898;25.004;2022-12-18T18:16:47;97753.72;;;6.07
62932;BMP280;49037;41.898;25.004;2022-12-18T18:19:20;97758.09;;;6.10
62932;BMP280;49037;41.898;25.004;2022-12-18T18:21:47;97776.75;;;6.15
62932;BMP280;49037;41.898;25.004;2022-12-18T18:24:15;97775.06;;;6.17
62932;BMP280;49037;41.898;25.004;2022-12-18T18:26:41;97776.94;;;6.12
62932;BMP280;49037;41.898;25.004;2022-12-18T18:29:08;97782.34;;;6.03
62932;BMP280;49037;41.898;25.004;2022-12-18T18:31:34;97779.56;;;5.92
62932;BMP280;49037;41.898;25.004;2022-12-18T18:33:59;97782.88;;;5.87
62932;BMP280;49037;41.898;25.004;2022-12-18T18:36:25;97795.00;;;5.93
62932;BMP280;49037;41.898;25.004;2022-12-18T18:38:52;97805.00;;;5.84
62932;BMP280;49037;41.898;25.004;2022-12-18T18:41:19;97819.91;;;5.81
62932;BMP280;49037;41.898;25.004;2022-12-18T18:43:46;97820.06;;;5.78
62932;BMP280;49037;41.898;25.004;2022-12-18T18:46:12;97814.72;;;5.72
62932;BMP280;49037;41.898;25.004;2022-12-18T18:48:38;97834.34;;;5.66
62932;BMP280;49037;41.898;25.004;2022-12-18T18:51:13;97835.81;;;5.81
62932;BMP280;49037;41.898;25.004;2022-12-18T18:53:44;97842.75;;;5.79
62932;BMP280;49037;41.898;25.004;2022-12-18T18:56:12;97849.31;;;5.98
62932;BMP280;49037;41.898;25.004;2022-12-18T18:58:38;97869.16;;;5.88
62932;BMP280;49037;41.898;25.004;2022-12-18T19:01:07;97873.97;;;5.89
62932;BMP280;49037;41.898;25.004;2022-12-18T19:03:34;97876.91;;;5.77
62932;BMP280;49037;41.898;25.004;2022-12-18T19:06:00;97890.16;;;5.77
62932;BMP280;49037;41.898;25.004;2022-12-18T19:08:27;97875.47;;;5.76
62932;BMP280;49037;41.898;25.004;2022-12-18T19:10:55;97890.41;;;5.73
62932;BMP280;49037;41.898;25.004;2022-12-18T19:13:22;97903.81;;;5.84
62932;BMP280;49037;41.898;25.004;2022-12-18T19:15:54;97896.47;;;5.79
62932;BMP280;49037;41.898;25.004;2022-12-18T19:18:21;97915.72;;;5.89
62932;BMP280;49037;41.898;25.004;2022-12-18T19:21:00;97912.41;;;5.94
62932;BMP280;49037;41.898;25.004;2022-12-18T19:23:26;97910.13;;;5.87
62932;BMP280;49037;41.898;25.004;2022-12-18T19:25:59;97938.16;;;5.93
62932;BMP280;49037;41.898;25.004;2022-12-18T19:28:24;97940.47;;;5.86
62932;BMP280;49037;41.898;25.004;2022-12-18T19:30:55;97934.50;;;5.76
62932;BMP280;49037;41.898;25.004;2022-12-18T19:33:23;97932.69;;;5.68
62932;BMP280;49037;41.898;25.004;2022-12-18T19:35:49;97928.09;;;5.54
62932;BMP280;49037;41.898;25.004;2022-12-18T19:38:15;97930.28;;;5.56
62932;BMP280;49037;41.898;25.004;2022-12-18T19:40:41;97941.53;;;5.65
62932;BMP280;49037;41.898;25.004;2022-12-18T19:43:07;97946.69;;;5.68
62932;BMP280;49037;41.898;25.004;2022-12-18T19:45:32;97948.47;;;5.48
62932;BMP280;49037;41.898;25.004;2022-12-18T19:47:58;97945.63;;;5.52
62932;BMP280;49037;41.898;25.004;2022-12-18T19:50:23;97948.72;;;5.50
62932;BMP280;49037;41.898;25.004;2022-12-18T19:52:49;97972.09;;;5.37
62932;BMP280;49037;41.898;25.004;2022-12-18T19:55:15;97970.31;;;5.43
62932;BMP280;49037;41.898;25.004;2022-12-18T19:57:40;97980.16;;;5.43
62932;BMP280;49037;41.898;25.004;2022-12-18T20:00:06;97981.50;;;5.38
62932;BMP280;49037;41.898;25.004;2022-12-18T20:02:32;97980.66;;;5.32
62932;BMP280;49037;41.898;25.004;2022-12-18T20:05:03;97990.31;;;5.21
62932;BMP280;49037;41.898;25.004;2022-12-18T20:07:28;97998.19;;;5.07
62932;BMP280;49037;41.898;25.004;2022-12-18T20:09:54;97991.53;;;5.11
62932;BMP280;49037;41.898;25.004;2022-12-18T20:12:19;97987.75;;;5.03
62932;BMP280;49037;41.898;25.004;2022-12-18T20:14:45;97983.25;;;4.95
62932;BMP280;49037;41.898;25.004;2022-12-18T20:17:10;97988.28;;;4.93
62932;BMP280;49037;41.898;25.004;2022-12-18T20:19:36;97994.31;;;4.84
62932;BMP280;49037;41.898;25.004;2022-12-18T20:22:01;97983.47;;;4.82
62932;BMP280;49037;41.898;25.004;2022-12-18T20:24:27;97981.78;;;4.61
62932;BMP280;49037;41.898;25.004;2022-12-18T20:26:53;97985.88;;;4.71
62932;BMP280;49037;41.898;25.004;2022-12-18T20:29:18;97977.63;;;4.69
62932;BMP280;49037;41.898;25.004;2022-12-18T20:31:43;97979.81;;;4.80
62932;BMP280;49037;41.898;25.004;2022-12-18T20:34:09;97984.00;;;4.63
62932;BMP280;49037;41.898;25.004;2022-12-18T20:36:34;97990.44;;;4.71
62932;BMP280;49037;41.898;25.004;2022-12-18T20:39:02;97986.75;;;4.68
62932;BMP280;49037;41.898;25.004;2022-12-18T20:41:27;97979.09;;;4.38
62932;BMP280;49037;41.898;25.004;2022-12-18T20:43:53;97983.63;;;4.38
62932;BMP280;49037;41.898;25.004;2022-12-18T20:46:18;97987.88;;;4.44
62932;BMP280;49037;41.898;25.004;2022-12-18T20:48:44;97969.56;;;4.32
62932;BMP280;49037;41.898;25.004;2022-12-18T20:51:15;97982.19;;;4.37
62932;BMP280;49037;41.898;25.004;2022-12-18T20:53:41;97991.53;;;4.47
62932;BMP280;49037;41.898;25.004;2022-12-18T20:56:12;98003.44;;;4.51
62932;BMP280;49037;41.898;25.004;2022-12-18T20:58:38;97996.38;;;4.57
62932;BMP280;49037;41.898;25.004;2022-12-18T21:01:09;97993.00;;;4.48
62932;BMP280;49037;41.898;25.004;2022-12-18T21:03:35;97989.16;;;4.57
62932;BMP280;49037;41.898;25.004;2022-12-18T21:06:01;98000.28;;;4.70
62932;BMP280;49037;41.898;25.004;2022-12-18T21:08:27;98008.88;;;4.89
62932;BMP280;49037;41.898;25.004;2022-12-18T21:10:53;97999.16;;;4.86
62932;BMP280;49037;41.898;25.004;2022-12-18T21:13:18;98003.75;;;4.85
62932;BMP280;49037;41.898;25.004;2022-12-18T21:15:44;98016.06;;;4.88
62932;BMP280;49037;41.898;25.004;2022-12-18T21:18:09;98007.41;;;4.88
62932;BMP280;49037;41.898;25.004;2022-12-18T21:20:35;98001.59;;;4.98
62932;BMP280;49037;41.898;25.004;2022-12-18T21:23:00;98019.38;;;5.07
62932;BMP280;49037;41.898;25.004;2022-12-18T21:25:31;98018.34;;;5.04
62932;BMP280;49037;41.898;25.004;2022-12-18T21:27:56;98022.19;;;5.03
62932;BMP280;49037;41.898;25.004;2022-12-18T21:30:21;98015.84;;;5.01
62932;BMP280;49037;41.898;25.004;2022-12-18T21:32:47;98021.78;;;4.96
62932;BMP280;49037;41.898;25.004;2022-12-18T21:35:12;98014.59;;;4.87
62932;BMP280;49037;41.898;25.004;2022-12-18T21:37:38;98009.59;;;4.89
62932;BMP280;49037;41.898;25.004;2022-12-18T21:40:04;98012.97;;;4.90
62932;BMP280;49037;41.898;25.004;2022-12-18T21:42:30;98022.97;;;4.95
62932;BMP280;49037;41.898;25.004;2022-12-18T21:45:14;98018.44;;;4.86
62932;BMP280;49037;41.898;25.004;2022-12-18T21:47:39;98004.63;;;4.82
62932;BMP280;49037;41.898;25.004;2022-12-18T21:50:05;98003.88;;;4.82
62932;BMP280;49037;41.898;25.004;2022-12-18T21:52:31;98020.63;;;4.88
62932;BMP280;49037;41.898;25.004;2022-12-18T21:54:56;98017.13;;;4.82
62932;BMP280;49037;41.898;25.004;2022-12-18T21:57:23;98006.88;;;4.75
62932;BMP280;49037;41.898;25.004;2022-12-18T21:59:49;98013.81;;;4.72
62932;BMP280;49037;41.898;25.004;2022-12-18T22:02:19;98009.53;;;4.75
62932;BMP280;49037;41.898;25.004;2022-12-18T22:04:46;98007.31;;;4.73
62932;BMP280;49037;41.898;25.004;2022-12-18T22:07:12;98008.34;;;4.76
62932;BMP280;49037;41.898;25.004;2022-12-18T22:09:38;98016.88;;;4.80
62932;BMP280;49037;41.898;25.004;2022-12-18T22:12:05;98019.03;;;4.81
62932;BMP280;49037;41.898;25.004;2022-12-18T22:14:30;98021.00;;;4.72
62932;BMP280;49037;41.898;25.004;2022-12-18T22:16:56;98005.13;;;4.72
62932;BMP280;49037;41.898;25.004;2022-12-18T22:19:22;98012.00;;;4.78
62932;BMP280;49037;41.898;25.004;2022-12-18T22:21:49;97994.22;;;4.79
62932;BMP280;49037;41.898;25.004;2022-12-18T22:24:19;98005.81;;;4.81
62932;BMP280;49037;41.898;25.004;2022-12-18T22:26:46;98004.81;;;4.79
62932;BMP280;49037;41.898;25.004;2022-12-18T22:29:18;98011.09;;;4.81
62932;BMP280;49037;41.898;25.004;2022-12-18T22:32:03;98004.25;;;4.75
62932;BMP280;49037;41.898;25.004;2022-12-18T22:34:29;98001.41;;;4.78
62932;BMP280;49037;41.898;25.004;2022-12-18T22:36:54;98007.72;;;4.81
62932;BMP280;49037;41.898;25.004;2022-12-18T22:39:27;98018.00;;;4.88
62932;BMP280;49037;41.898;25.004;2022-12-18T22:41:54;98020.78;;;4.84
62932;BMP280;49037;41.898;25.004;2022-12-18T22:44:20;98029.03;;;4.86
62932;BMP280;49037;41.898;25.004;2022-12-18T22:46:48;98031.44;;;4.75
62932;BMP280;49037;41.898;25.004;2022-12-18T22:49:15;98021.44;;;4.70
62932;BMP280;49037;41.898;25.004;2022-12-18T22:51:41;98005.72;;;4.67
62932;BMP280;49037;41.898;25.004;2022-12-18T22:54:07;98022.47;;;4.73
62932;BMP280;49037;41.898;25.004;2022-12-18T22:56:33;98017.75;;;4.68
62932;BMP280;49037;41.898;25.004;2022-12-18T22:58:59;98014.41;;;4.67
62932;BMP280;49037;41.898;25.004;2022-12-18T23:01:26;98017.75;;;4.68
62932;BMP280;49037;41.898;25.004;2022-12-18T23:03:53;98024.38;;;4.72
62932;BMP280;49037;41.898;25.004;2022-12-18T23:06:19;98036.72;;;4.75
62932;BMP280;49037;41.898;25.004;2022-12-18T23:08:46;98029.97;;;4.65
62932;BMP280;49037;41.898;25.004;2022-12-18T23:11:12;98036.00;;;4.66
62932;BMP280;49037;41.898;25.004;2022-12-18T23:13:38;98031.03;;;4.59
62932;BMP280;49037;41.898;25.004;2022-12-18T23:16:05;98024.13;;;4.61
62932;BMP280;49037;41.898;25.004;2022-12-18T23:18:31;98032.53;;;4.60
62932;BMP280;49037;41.898;25.004;2022-12-18T23:20:57;98038.34;;;4.64
62932;BMP280;49037;41.898;25.004;2022-12-18T23:23:23;98043.66;;;4.64
62932;BMP280;49037;41.898;25.004;2022-12-18T23:25:49;98035.31;;;4.56
62932;BMP280;49037;41.898;25.004;2022-12-18T23:28:14;98038.97;;;4.59
62932;BMP280;49037;41.898;25.004;2022-12-18T23:30:40;98032.25;;;4.40
62932;BMP280;49037;41.898;25.004;2022-12-18T23:33:05;98039.28;;;4.52
62932;BMP280;49037;41.898;25.004;2022-12-18T23:35:31;98034.03;;;4.43
62932;BMP280;49037;41.898;25.004;2022-12-18T23:37:56;98030.34;;;4.50
62932;BMP280;49037;41.898;25.004;2022-12-18T23:40:21;98030.91;;;4.54
62932;BMP280;49037;41.898;25.004;2022-12-18T23:42:47;98037.94;;;4.56
62932;BMP280;49037;41.898;25.004;2022-12-18T23:45:12;98041.03;;;4.55
62932;BMP280;49037;41.898;25.004;2022-12-18T23:47:38;98050.28;;;4.51
62932;BMP280;49037;41.898;25.004;2022-12-18T23:50:04;98058.41;;;4.47
62932;BMP280;49037;41.898;25.004;2022-12-18T23:52:29;98061.78;;;4.48
62932;BMP280;49037;41.898;25.004;2022-12-18T23:54:55;98062.94;;;4.47
62932;BMP280;49037;41.898;25.004;2022-12-18T23:57:20;98060.78;;;4.45
62932;BMP280;49037;41.898;25.004;2022-12-18T23:59:46;98062.69;;;4.45
